Аэропорт: Бесовец. Петрозаводск

ICAO: ULPB

METAR:
2019-07-23 18:00:00
ULPB 231800Z AUTO 23002MPS 9999 // ///081/// 16/11 Q1013 RMK QFE756/1008
METAR:
Информация по данной станции не доступна